Terminal Aerodrome Forecast
Issued by NWS

Home | Current Version | Previous Version | Text Only | Print | Product List | Glossary On
Versions: 1 2 3 4 5 6 7 8 9 10 11 12 13 14 15 16 17 18 19 20 21 22 23
000
FTUS41 KOKX 011900 AAA
TAFSWF
TAF AMD
KSWF 011931Z 0120/0224 07005KT 3SM BR BKN015 OVC020
     FM020100 02007KT 6SM BR BKN015
     FM021600 03005KT P6SM BKN025
     FM022100 06006KT P6SM OVC040
      AMD NOT SKED=

USA.gov is the U.S. government's official web portal to all federal, state and local government web resources and services.